HZCMJ OEJN-OEGS
Flight info
| Callsign | HZCMJ |
|---|---|
| Flight time | 1h 0m |
| Altitude | 39000 |
| Route | EGREP B417 GAS |
| Aircraft | A319/M-SDE3FGHIRWY/LB1 |
Departure
| Time | 2026-04-16 12:41 |
|---|---|
| Airport | King Abdulaziz International Airport (OEJN) |
Arrival
| Time | 2026-04-16 13:42 |
|---|---|
| Airport | Prince Naif bin Abdulaziz International Airport (OEGS) |
| Time | Latitude | Longitude | Altitude | Speed | Heading |
|---|---|---|---|---|---|
| 2026-04-16 12:21 | 21.68470 | 39.13800 | 30 ft | 0 kts | 251° |
| 2026-04-16 12:31 | 21.68470 | 39.13801 | 30 ft | 2 kts | 251° |
| 2026-04-16 12:31 | 21.68479 | 39.13826 | 30 ft | 4 kts | 251° |
| 2026-04-16 12:32 | 21.68488 | 39.13853 | 30 ft | 4 kts | 251° |
| 2026-04-16 12:32 | 21.68496 | 39.13879 | 29 ft | 4 kts | 236° |
| 2026-04-16 12:32 | 21.68515 | 39.13892 | 29 ft | 4 kts | 174° |
| 2026-04-16 12:32 | 21.68536 | 39.13887 | 29 ft | 0 kts | 159° |
| 2026-04-16 12:34 | 21.68531 | 39.13888 | 29 ft | 3 kts | 160° |
| 2026-04-16 12:35 | 21.68494 | 39.13903 | 29 ft | 9 kts | 159° |
| 2026-04-16 12:35 | 21.68428 | 39.13913 | 30 ft | 12 kts | 197° |
| 2026-04-16 12:35 | 21.68367 | 39.13840 | 30 ft | 12 kts | 249° |
| 2026-04-16 12:35 | 21.68345 | 39.13768 | 30 ft | 10 kts | 251° |
| 2026-04-16 12:36 | 21.68339 | 39.13700 | 30 ft | 9 kts | 303° |
| 2026-04-16 12:36 | 21.68404 | 39.13648 | 30 ft | 15 kts | 337° |
| 2026-04-16 12:36 | 21.68512 | 39.13604 | 29 ft | 18 kts | 339° |
| 2026-04-16 12:36 | 21.68629 | 39.13557 | 29 ft | 18 kts | 339° |
| 2026-04-16 12:37 | 21.68749 | 39.13510 | 29 ft | 18 kts | 340° |
| 2026-04-16 12:37 | 21.68868 | 39.13463 | 28 ft | 19 kts | 340° |
| 2026-04-16 12:37 | 21.68994 | 39.13412 | 28 ft | 20 kts | 340° |
| 2026-04-16 12:37 | 21.69128 | 39.13358 | 27 ft | 21 kts | 339° |
| 2026-04-16 12:38 | 21.69268 | 39.13303 | 26 ft | 21 kts | 339° |
| 2026-04-16 12:38 | 21.69404 | 39.13249 | 27 ft | 20 kts | 340° |
| 2026-04-16 12:38 | 21.69535 | 39.13199 | 27 ft | 20 kts | 341° |
| 2026-04-16 12:38 | 21.69661 | 39.13150 | 25 ft | 19 kts | 340° |
| 2026-04-16 12:39 | 21.69789 | 39.13100 | 24 ft | 20 kts | 340° |
| 2026-04-16 12:39 | 21.69924 | 39.13047 | 24 ft | 21 kts | 340° |
| 2026-04-16 12:39 | 21.70066 | 39.12991 | 24 ft | 22 kts | 340° |
| 2026-04-16 12:39 | 21.70215 | 39.12933 | 23 ft | 23 kts | 340° |
| 2026-04-16 12:40 | 21.70302 | 39.12893 | 22 ft | 12 kts | 318° |
| 2026-04-16 12:40 | 21.70298 | 39.12805 | 23 ft | 13 kts | 248° |
| 2026-04-16 12:40 | 21.70260 | 39.12717 | 25 ft | 14 kts | 227° |
| 2026-04-16 12:40 | 21.70175 | 39.12729 | 24 ft | 13 kts | 159° |
| 2026-04-16 12:41 | 21.70082 | 39.12765 | 25 ft | 19 kts | 159° |
| 2026-04-16 12:41 | 21.69729 | 39.12904 | 24 ft | 89 kts | 160° |
| 2026-04-16 12:41 | 21.68944 | 39.13212 | 31 ft | 148 kts | 160° |
| 2026-04-16 12:41 | 21.67963 | 39.13596 | 682 ft | 148 kts | 161° |
| 2026-04-16 12:42 | 21.66992 | 39.13983 | 1428 ft | 149 kts | 164° |
| 2026-04-16 12:42 | 21.66008 | 39.14371 | 2079 ft | 157 kts | 163° |
| 2026-04-16 12:42 | 21.64963 | 39.14782 | 2739 ft | 161 kts | 163° |
| 2026-04-16 12:42 | 21.63924 | 39.15191 | 3432 ft | 162 kts | 163° |
| 2026-04-16 12:43 | 21.62861 | 39.15604 | 4130 ft | 164 kts | 163° |
| 2026-04-16 12:43 | 21.61721 | 39.15740 | 4730 ft | 171 kts | 191° |
| 2026-04-16 12:43 | 21.60688 | 39.15074 | 5397 ft | 182 kts | 223° |
| 2026-04-16 12:43 | 21.60233 | 39.13760 | 6048 ft | 203 kts | 263° |
| 2026-04-16 12:44 | 21.60784 | 39.12304 | 6673 ft | 226 kts | 308° |
| 2026-04-16 12:44 | 21.62196 | 39.11512 | 7274 ft | 243 kts | 345° |
| 2026-04-16 12:44 | 21.63961 | 39.11400 | 7645 ft | 263 kts | 4° |
| 2026-04-16 12:44 | 21.65832 | 39.11641 | 8127 ft | 281 kts | 6° |
| 2026-04-16 12:45 | 21.67810 | 39.11893 | 8899 ft | 290 kts | 5° |
| 2026-04-16 12:45 | 21.69810 | 39.12277 | 9801 ft | 295 kts | 14° |
| 2026-04-16 12:45 | 21.71738 | 39.13106 | 10597 ft | 303 kts | 27° |
| 2026-04-16 12:45 | 21.73484 | 39.14394 | 11423 ft | 310 kts | 39° |
| 2026-04-16 12:46 | 21.75180 | 39.15973 | 11784 ft | 334 kts | 40° |
| 2026-04-16 12:46 | 21.76989 | 39.17680 | 12127 ft | 358 kts | 40° |
| 2026-04-16 12:46 | 21.78918 | 39.19507 | 12383 ft | 381 kts | 40° |
| 2026-04-16 12:46 | 21.80966 | 39.21446 | 12576 ft | 404 kts | 40° |
| 2026-04-16 12:47 | 21.83119 | 39.23482 | 13021 ft | 416 kts | 40° |
| 2026-04-16 12:47 | 21.85301 | 39.25543 | 13689 ft | 421 kts | 39° |
| 2026-04-16 12:47 | 21.87515 | 39.27631 | 14310 ft | 424 kts | 39° |
| 2026-04-16 12:47 | 21.89741 | 39.29727 | 14985 ft | 426 kts | 39° |
| 2026-04-16 12:48 | 21.91979 | 39.31835 | 15639 ft | 430 kts | 39° |
| 2026-04-16 12:48 | 21.94237 | 39.33962 | 16371 ft | 431 kts | 39° |
| 2026-04-16 12:48 | 21.96501 | 39.36094 | 17017 ft | 434 kts | 39° |
| 2026-04-16 12:48 | 21.98751 | 39.38215 | 17660 ft | 437 kts | 39° |
| 2026-04-16 12:49 | 22.01073 | 39.40408 | 18247 ft | 440 kts | 38° |
| 2026-04-16 12:49 | 22.03388 | 39.42594 | 18768 ft | 443 kts | 38° |
| 2026-04-16 12:49 | 22.05682 | 39.44760 | 19263 ft | 446 kts | 38° |
| 2026-04-16 12:49 | 22.08024 | 39.46972 | 19773 ft | 449 kts | 38° |
| 2026-04-16 12:50 | 22.10385 | 39.49202 | 20287 ft | 452 kts | 37° |
| 2026-04-16 12:50 | 22.12761 | 39.51446 | 20778 ft | 456 kts | 37° |
| 2026-04-16 12:50 | 22.15151 | 39.53708 | 21249 ft | 459 kts | 37° |
| 2026-04-16 12:50 | 22.17561 | 39.55993 | 21722 ft | 463 kts | 37° |
| 2026-04-16 12:51 | 22.19989 | 39.58294 | 22208 ft | 466 kts | 36° |
| 2026-04-16 12:51 | 22.22432 | 39.60609 | 22658 ft | 469 kts | 36° |
| 2026-04-16 12:51 | 22.24893 | 39.62941 | 23089 ft | 472 kts | 36° |
| 2026-04-16 12:51 | 22.27365 | 39.65284 | 23508 ft | 476 kts | 36° |
| 2026-04-16 12:52 | 22.29862 | 39.67657 | 23904 ft | 479 kts | 36° |
| 2026-04-16 12:52 | 22.32376 | 39.70047 | 24247 ft | 483 kts | 35° |
| 2026-04-16 12:52 | 22.34905 | 39.72450 | 24563 ft | 486 kts | 36° |
| 2026-04-16 12:52 | 22.37444 | 39.74865 | 24857 ft | 489 kts | 35° |
| 2026-04-16 12:53 | 22.40007 | 39.77304 | 25242 ft | 492 kts | 35° |
| 2026-04-16 12:53 | 22.42576 | 39.79749 | 25600 ft | 494 kts | 35° |
| 2026-04-16 12:53 | 22.45168 | 39.82218 | 25914 ft | 497 kts | 35° |
| 2026-04-16 12:53 | 22.47767 | 39.84696 | 26190 ft | 500 kts | 36° |
| 2026-04-16 12:54 | 22.50381 | 39.87192 | 26581 ft | 503 kts | 35° |
| 2026-04-16 12:54 | 22.53007 | 39.89701 | 27024 ft | 505 kts | 36° |
| 2026-04-16 12:54 | 22.55644 | 39.92220 | 27356 ft | 507 kts | 35° |
| 2026-04-16 12:54 | 22.58296 | 39.94751 | 27690 ft | 510 kts | 35° |
| 2026-04-16 12:55 | 22.60962 | 39.97299 | 27988 ft | 512 kts | 35° |
| 2026-04-16 12:55 | 22.63591 | 39.99816 | 28430 ft | 511 kts | 35° |
| 2026-04-16 12:55 | 22.66281 | 40.02394 | 28900 ft | 510 kts | 35° |
| 2026-04-16 12:55 | 22.68938 | 40.04941 | 29391 ft | 509 kts | 35° |
| 2026-04-16 12:56 | 22.71581 | 40.07478 | 29853 ft | 508 kts | 35° |
| 2026-04-16 12:56 | 22.74229 | 40.10019 | 30266 ft | 508 kts | 35° |
| 2026-04-16 12:56 | 22.76874 | 40.12556 | 30651 ft | 508 kts | 35° |
| 2026-04-16 12:56 | 22.79521 | 40.15089 | 31009 ft | 508 kts | 34° |
| 2026-04-16 12:57 | 22.82136 | 40.17588 | 31364 ft | 508 kts | 34° |
| 2026-04-16 12:57 | 22.84789 | 40.20129 | 31731 ft | 509 kts | 34° |
| 2026-04-16 12:57 | 22.87441 | 40.22678 | 32113 ft | 509 kts | 34° |
| 2026-04-16 12:57 | 22.90095 | 40.25232 | 32533 ft | 509 kts | 34° |
| 2026-04-16 12:58 | 22.92744 | 40.27780 | 32929 ft | 509 kts | 34° |
| 2026-04-16 12:58 | 22.95396 | 40.30329 | 33314 ft | 509 kts | 34° |
| 2026-04-16 12:58 | 22.98049 | 40.32881 | 33703 ft | 510 kts | 34° |
| 2026-04-16 12:58 | 23.00702 | 40.35440 | 34065 ft | 510 kts | 33° |
| 2026-04-16 12:59 | 23.03351 | 40.37997 | 34421 ft | 510 kts | 33° |
| 2026-04-16 12:59 | 23.05999 | 40.40554 | 34853 ft | 509 kts | 33° |
| 2026-04-16 12:59 | 23.08639 | 40.43105 | 35328 ft | 507 kts | 33° |
| 2026-04-16 13:00 | 23.13892 | 40.48179 | 36241 ft | 502 kts | 32° |
| 2026-04-16 13:00 | 23.16488 | 40.50684 | 36708 ft | 498 kts | 32° |
| 2026-04-16 13:00 | 23.19074 | 40.53182 | 37171 ft | 496 kts | 31° |
| 2026-04-16 13:00 | 23.21643 | 40.55671 | 37607 ft | 494 kts | 31° |
| 2026-04-16 13:01 | 23.24202 | 40.58151 | 37982 ft | 492 kts | 31° |
| 2026-04-16 13:01 | 23.26756 | 40.60625 | 38372 ft | 491 kts | 30° |
| 2026-04-16 13:01 | 23.29272 | 40.63136 | 38709 ft | 493 kts | 33° |
| 2026-04-16 13:01 | 23.31723 | 40.65767 | 38894 ft | 498 kts | 35° |
| 2026-04-16 13:02 | 23.34127 | 40.68505 | 38937 ft | 500 kts | 37° |
| 2026-04-16 13:02 | 23.38849 | 40.74082 | 38939 ft | 501 kts | 37° |
| 2026-04-16 13:03 | 23.43590 | 40.79620 | 38939 ft | 499 kts | 36° |
| 2026-04-16 13:03 | 23.48391 | 40.85068 | 38929 ft | 498 kts | 36° |
| 2026-04-16 13:04 | 23.53216 | 40.90510 | 38925 ft | 499 kts | 36° |
| 2026-04-16 13:04 | 23.57983 | 40.95951 | 38931 ft | 501 kts | 36° |
| 2026-04-16 13:05 | 23.62785 | 41.01448 | 38927 ft | 501 kts | 36° |
| 2026-04-16 13:05 | 23.67590 | 41.06944 | 38943 ft | 500 kts | 36° |
| 2026-04-16 13:06 | 23.72396 | 41.12440 | 38947 ft | 500 kts | 36° |
| 2026-04-16 13:06 | 23.77192 | 41.17932 | 38938 ft | 499 kts | 36° |
| 2026-04-16 13:07 | 23.81979 | 41.23419 | 38953 ft | 498 kts | 37° |
| 2026-04-16 13:07 | 23.86728 | 41.28873 | 38939 ft | 494 kts | 37° |
| 2026-04-16 13:08 | 23.91465 | 41.34322 | 38926 ft | 494 kts | 37° |
| 2026-04-16 13:08 | 23.96196 | 41.39778 | 38930 ft | 494 kts | 37° |
| 2026-04-16 13:09 | 24.00936 | 41.45231 | 38920 ft | 494 kts | 37° |
| 2026-04-16 13:09 | 24.05668 | 41.50683 | 38924 ft | 495 kts | 37° |
| 2026-04-16 13:10 | 24.10408 | 41.56159 | 38922 ft | 495 kts | 37° |
| 2026-04-16 13:10 | 24.15140 | 41.61634 | 38928 ft | 495 kts | 37° |
| 2026-04-16 13:11 | 24.19083 | 41.66195 | 38925 ft | 496 kts | 37° |
| 2026-04-16 13:11 | 24.24609 | 41.72597 | 38912 ft | 498 kts | 37° |
| 2026-04-16 13:12 | 24.29367 | 41.78124 | 38915 ft | 499 kts | 37° |
| 2026-04-16 13:12 | 24.33386 | 41.82730 | 38931 ft | 495 kts | 34° |
| 2026-04-16 13:13 | 24.38516 | 41.87727 | 38926 ft | 493 kts | 33° |
| 2026-04-16 13:13 | 24.43655 | 41.92718 | 38928 ft | 493 kts | 33° |
| 2026-04-16 13:14 | 24.48790 | 41.97714 | 38924 ft | 493 kts | 33° |
| 2026-04-16 13:14 | 24.53924 | 42.02723 | 38934 ft | 494 kts | 33° |
| 2026-04-16 13:15 | 24.59015 | 42.07697 | 38923 ft | 493 kts | 33° |
| 2026-04-16 13:15 | 24.64141 | 42.12716 | 38919 ft | 493 kts | 33° |
| 2026-04-16 13:16 | 24.69270 | 42.17729 | 38942 ft | 494 kts | 34° |
| 2026-04-16 13:16 | 24.74412 | 42.22759 | 38922 ft | 496 kts | 34° |
| 2026-04-16 13:17 | 24.79561 | 42.27817 | 38896 ft | 497 kts | 34° |
| 2026-04-16 13:17 | 24.84720 | 42.32895 | 38900 ft | 498 kts | 34° |
| 2026-04-16 13:18 | 24.89900 | 42.37980 | 38906 ft | 499 kts | 34° |
| 2026-04-16 13:18 | 24.95084 | 42.43080 | 38911 ft | 500 kts | 34° |
| 2026-04-16 13:19 | 25.00267 | 42.48198 | 38936 ft | 500 kts | 34° |
| 2026-04-16 13:19 | 25.05439 | 42.53307 | 38956 ft | 498 kts | 34° |
| 2026-04-16 13:20 | 25.10587 | 42.58396 | 38937 ft | 496 kts | 34° |
| 2026-04-16 13:20 | 25.15715 | 42.63468 | 38940 ft | 494 kts | 34° |
| 2026-04-16 13:21 | 25.20827 | 42.68535 | 38836 ft | 493 kts | 34° |
| 2026-04-16 13:21 | 25.23376 | 42.71063 | 38139 ft | 493 kts | 35° |
| 2026-04-16 13:21 | 25.25935 | 42.73600 | 37304 ft | 494 kts | 35° |
| 2026-04-16 13:21 | 25.28492 | 42.76136 | 36466 ft | 495 kts | 35° |
| 2026-04-16 13:22 | 25.31027 | 42.78651 | 35620 ft | 497 kts | 35° |
| 2026-04-16 13:22 | 25.33605 | 42.81212 | 34740 ft | 499 kts | 36° |
| 2026-04-16 13:22 | 25.36194 | 42.83787 | 33850 ft | 501 kts | 36° |
| 2026-04-16 13:22 | 25.38791 | 42.86366 | 32853 ft | 503 kts | 36° |
| 2026-04-16 13:23 | 25.41391 | 42.88954 | 31830 ft | 504 kts | 37° |
| 2026-04-16 13:23 | 25.44003 | 42.91560 | 30753 ft | 506 kts | 37° |
| 2026-04-16 13:23 | 25.46623 | 42.94176 | 29578 ft | 509 kts | 38° |
| 2026-04-16 13:23 | 25.49253 | 42.96802 | 28232 ft | 511 kts | 38° |
| 2026-04-16 13:24 | 25.51903 | 42.99448 | 26871 ft | 514 kts | 38° |
| 2026-04-16 13:24 | 25.54563 | 43.02102 | 25478 ft | 516 kts | 38° |
| 2026-04-16 13:24 | 25.57235 | 43.04766 | 24063 ft | 518 kts | 38° |
| 2026-04-16 13:24 | 25.59904 | 43.07430 | 23001 ft | 512 kts | 38° |
| 2026-04-16 13:25 | 25.62517 | 43.10049 | 22350 ft | 502 kts | 38° |
| 2026-04-16 13:25 | 25.65094 | 43.12634 | 21717 ft | 497 kts | 38° |
| 2026-04-16 13:25 | 25.67640 | 43.15188 | 21096 ft | 491 kts | 38° |
| 2026-04-16 13:25 | 25.70166 | 43.17717 | 20485 ft | 487 kts | 38° |
| 2026-04-16 13:26 | 25.72673 | 43.20223 | 19878 ft | 483 kts | 38° |
| 2026-04-16 13:26 | 25.75160 | 43.22711 | 19287 ft | 479 kts | 38° |
| 2026-04-16 13:26 | 25.77621 | 43.25173 | 18706 ft | 474 kts | 38° |
| 2026-04-16 13:26 | 25.80059 | 43.27618 | 18123 ft | 470 kts | 38° |
| 2026-04-16 13:27 | 25.82473 | 43.30044 | 17476 ft | 467 kts | 39° |
| 2026-04-16 13:27 | 25.84865 | 43.32442 | 16847 ft | 458 kts | 39° |
| 2026-04-16 13:27 | 25.87203 | 43.34784 | 16267 ft | 449 kts | 39° |
| 2026-04-16 13:27 | 25.89507 | 43.37091 | 15681 ft | 442 kts | 39° |
| 2026-04-16 13:28 | 25.91777 | 43.39364 | 15127 ft | 436 kts | 39° |
| 2026-04-16 13:28 | 25.94015 | 43.41605 | 14584 ft | 431 kts | 39° |
| 2026-04-16 13:28 | 25.96223 | 43.43817 | 14051 ft | 424 kts | 39° |
| 2026-04-16 13:28 | 25.98400 | 43.45997 | 13511 ft | 417 kts | 39° |
| 2026-04-16 13:29 | 26.00538 | 43.48143 | 12959 ft | 410 kts | 40° |
| 2026-04-16 13:29 | 26.02630 | 43.50264 | 12411 ft | 403 kts | 40° |
| 2026-04-16 13:29 | 26.04688 | 43.52339 | 11903 ft | 395 kts | 37° |
| 2026-04-16 13:29 | 26.06928 | 43.54022 | 11452 ft | 383 kts | 25° |
| 2026-04-16 13:30 | 26.09332 | 43.55152 | 11082 ft | 369 kts | 13° |
| 2026-04-16 13:30 | 26.11791 | 43.55733 | 10712 ft | 355 kts | 2° |
| 2026-04-16 13:30 | 26.14213 | 43.55807 | 10369 ft | 342 kts | 352° |
| 2026-04-16 13:30 | 26.16524 | 43.55439 | 10039 ft | 330 kts | 342° |
| 2026-04-16 13:31 | 26.18632 | 43.54691 | 9711 ft | 318 kts | 332° |
| 2026-04-16 13:31 | 26.20584 | 43.53609 | 9365 ft | 309 kts | 326° |
| 2026-04-16 13:31 | 26.22449 | 43.52476 | 9042 ft | 304 kts | 326° |
| 2026-04-16 13:31 | 26.24308 | 43.51355 | 8717 ft | 304 kts | 328° |
| 2026-04-16 13:32 | 26.26298 | 43.50507 | 8409 ft | 308 kts | 342° |
| 2026-04-16 13:32 | 26.28428 | 43.50183 | 8092 ft | 310 kts | 354° |
| 2026-04-16 13:32 | 26.30615 | 43.50165 | 7764 ft | 310 kts | 359° |
| 2026-04-16 13:32 | 26.32771 | 43.50340 | 7446 ft | 312 kts | 4° |
| 2026-04-16 13:33 | 26.34892 | 43.50677 | 7139 ft | 312 kts | 8° |
| 2026-04-16 13:33 | 26.37000 | 43.51219 | 6847 ft | 311 kts | 15° |
| 2026-04-16 13:33 | 26.39051 | 43.51987 | 6602 ft | 311 kts | 21° |
| 2026-04-16 13:33 | 26.40982 | 43.52948 | 6357 ft | 295 kts | 27° |
| 2026-04-16 13:34 | 26.42719 | 43.54021 | 6114 ft | 276 kts | 33° |
| 2026-04-16 13:34 | 26.44266 | 43.55156 | 5889 ft | 258 kts | 37° |
| 2026-04-16 13:34 | 26.45654 | 43.56329 | 5678 ft | 244 kts | 41° |
| 2026-04-16 13:34 | 26.46900 | 43.57541 | 5495 ft | 233 kts | 44° |
| 2026-04-16 13:35 | 26.48041 | 43.58807 | 5366 ft | 227 kts | 49° |
| 2026-04-16 13:35 | 26.49069 | 43.60101 | 5285 ft | 219 kts | 52° |
| 2026-04-16 13:35 | 26.49999 | 43.61432 | 5175 ft | 215 kts | 56° |
| 2026-04-16 13:35 | 26.50731 | 43.62835 | 5073 ft | 206 kts | 77° |
| 2026-04-16 13:36 | 26.50838 | 43.64377 | 5002 ft | 196 kts | 106° |
| 2026-04-16 13:36 | 26.50268 | 43.65716 | 5008 ft | 189 kts | 134° |
| 2026-04-16 13:36 | 26.49239 | 43.66574 | 5019 ft | 185 kts | 155° |
| 2026-04-16 13:36 | 26.48090 | 43.67228 | 5013 ft | 184 kts | 155° |
| 2026-04-16 13:37 | 26.46958 | 43.67877 | 5007 ft | 182 kts | 155° |
| 2026-04-16 13:37 | 26.45820 | 43.68529 | 5012 ft | 185 kts | 155° |
| 2026-04-16 13:37 | 26.44675 | 43.69184 | 4933 ft | 185 kts | 154° |
| 2026-04-16 13:37 | 26.43528 | 43.69840 | 4749 ft | 185 kts | 154° |
| 2026-04-16 13:38 | 26.42396 | 43.70488 | 4517 ft | 180 kts | 153° |
| 2026-04-16 13:38 | 26.41322 | 43.71103 | 4290 ft | 166 kts | 153° |
| 2026-04-16 13:38 | 26.40314 | 43.71680 | 4081 ft | 160 kts | 153° |
| 2026-04-16 13:38 | 26.39323 | 43.72247 | 3873 ft | 161 kts | 151° |
| 2026-04-16 13:39 | 26.38335 | 43.72812 | 3681 ft | 160 kts | 149° |
| 2026-04-16 13:39 | 26.37407 | 43.73339 | 3483 ft | 139 kts | 147° |
| 2026-04-16 13:39 | 26.36588 | 43.73807 | 3301 ft | 129 kts | 146° |
| 2026-04-16 13:39 | 26.35805 | 43.74255 | 3140 ft | 125 kts | 147° |
| 2026-04-16 13:40 | 26.35043 | 43.74692 | 2971 ft | 122 kts | 144° |
| 2026-04-16 13:40 | 26.34283 | 43.75128 | 2791 ft | 124 kts | 144° |
| 2026-04-16 13:40 | 26.33514 | 43.75569 | 2627 ft | 127 kts | 142° |
| 2026-04-16 13:40 | 26.32697 | 43.76016 | 2427 ft | 130 kts | 147° |
| 2026-04-16 13:41 | 26.31910 | 43.76489 | 2270 ft | 132 kts | 147° |
| 2026-04-16 13:41 | 26.31105 | 43.76941 | 2138 ft | 121 kts | 149° |
| 2026-04-16 13:41 | 26.30546 | 43.77264 | 2136 ft | 61 kts | 152° |
| 2026-04-16 13:41 | 26.30200 | 43.77459 | 2134 ft | 51 kts | 153° |
| 2026-04-16 13:42 | 26.29907 | 43.77627 | 2134 ft | 43 kts | 154° |
| 2026-04-16 13:42 | 26.29663 | 43.77720 | 2135 ft | 27 kts | 173° |
| 2026-04-16 13:42 | 26.29516 | 43.77722 | 2133 ft | 14 kts | 182° |
| 2026-04-16 13:42 | 26.29437 | 43.77705 | 2133 ft | 10 kts | 216° |
| 2026-04-16 13:43 | 26.29436 | 43.77646 | 2131 ft | 7 kts | 307° |
| 2026-04-16 13:43 | 26.29471 | 43.77623 | 2133 ft | 5 kts | 332° |
| 2026-04-16 13:43 | 26.29499 | 43.77607 | 2133 ft | 4 kts | 333° |
| 2026-04-16 13:43 | 26.29532 | 43.77588 | 2133 ft | 7 kts | 333° |
| 2026-04-16 13:44 | 26.29582 | 43.77560 | 2133 ft | 9 kts | 333° |
| 2026-04-16 13:44 | 26.29649 | 43.77522 | 2134 ft | 12 kts | 333° |
| 2026-04-16 13:44 | 26.29735 | 43.77474 | 2134 ft | 15 kts | 333° |
| 2026-04-16 13:44 | 26.29829 | 43.77421 | 2134 ft | 15 kts | 333° |
| 2026-04-16 13:45 | 26.29921 | 43.77368 | 2134 ft | 15 kts | 333° |
| 2026-04-16 13:45 | 26.30008 | 43.77319 | 2135 ft | 13 kts | 333° |
| 2026-04-16 13:45 | 26.30087 | 43.77274 | 2135 ft | 12 kts | 333° |
| 2026-04-16 13:45 | 26.30155 | 43.77236 | 2135 ft | 11 kts | 333° |
| 2026-04-16 13:46 | 26.30219 | 43.77199 | 2135 ft | 10 kts | 333° |
| 2026-04-16 13:46 | 26.30280 | 43.77164 | 2136 ft | 10 kts | 333° |
| 2026-04-16 13:46 | 26.30336 | 43.77132 | 2136 ft | 7 kts | 333° |
| 2026-04-16 13:46 | 26.30335 | 43.77089 | 2136 ft | 6 kts | 239° |
| 2026-04-16 13:47 | 26.30316 | 43.77049 | 2135 ft | 2 kts | 242° |
| 2026-04-16 13:47 | 26.30315 | 43.77048 | 2135 ft | 0 kts | 242° |